ENBL/FDE METAR and TAF weather

Enter ICAO airport designator
Station Type Date Time Source
ENBL METAR 2022/06/27 17:20 UTC NOAA

ENBL 271720Z VRB02KT 9999 SCT050 SCT070 BKN145 17/10 Q1016


Station Type Date Time Source
ENBL Decoded METAR 2022/06/27 17:20 UTC NOAA

Forde / Bringeland, Norway (ENBL) 61-27N 005-52E
Jun 27, 2022 - 01:20 PM EDT / 2022.06.27 1720 UTC
Wind: Variable at 2 MPH (2 KT):0
Visibility: greater than 7 mile(s):0
Sky conditions: mostly cloudy
Temperature: 62 F (17 C)
Dew Point: 50 F (10 C)
Relative Humidity: 63%
Pressure (altimeter): 30.00 in. Hg (1016 hPa)
ob: ENBL 271720Z VRB02KT 9999 SCT050 SCT070 BKN145 17/10 Q1016
cycle: 17

Station Type Date Time Source
ENBL TAF UTC NOAA

Error!

Example: see airport list